createdAt,value
2023-05-11T00:02:16.630Z,13.52
2023-05-11T00:04:43.630Z,13.44
2023-05-11T00:07:10.241Z,13.39
2023-05-11T00:09:38.459Z,13.55
2023-05-11T00:12:05.412Z,13.49
2023-05-11T00:14:32.144Z,13.41
2023-05-11T00:16:58.594Z,13.42
2023-05-11T00:19:25.097Z,13.50
2023-05-11T00:21:51.664Z,13.47
2023-05-11T00:24:22.319Z,13.33
2023-05-11T00:26:48.824Z,13.41
2023-05-11T00:29:15.460Z,13.16
2023-05-11T00:31:48.031Z,13.27
2023-05-11T00:34:18.015Z,13.22
2023-05-11T00:36:45.444Z,13.27
2023-05-11T00:39:12.603Z,13.17
2023-05-11T00:41:39.237Z,13.23
2023-05-11T00:44:05.895Z,13.23
2023-05-11T00:46:32.501Z,13.21
2023-05-11T00:48:59.462Z,13.23
2023-05-11T00:51:26.333Z,13.35
2023-05-11T00:53:52.813Z,13.37
2023-05-11T00:56:20.044Z,13.37
2023-05-11T00:58:46.612Z,13.25
2023-05-11T01:01:14.893Z,13.28
2023-05-11T01:03:41.425Z,13.34
2023-05-11T01:06:16.436Z,13.26
2023-05-11T01:09:09.482Z,13.17
2023-05-11T01:11:59.518Z,13.08
2023-05-11T01:14:56.483Z,13.15
2023-05-11T01:17:46.151Z,13.20
2023-05-11T01:20:19.414Z,13.11
2023-05-11T01:22:56.751Z,13.20
2023-05-11T01:25:32.874Z,13.15
2023-05-11T01:28:27.396Z,13.04
2023-05-11T01:31:13.606Z,13.03
2023-05-11T01:33:48.532Z,13.09
2023-05-11T01:36:17.521Z,13.08
2023-05-11T01:38:48.901Z,12.97
2023-05-11T01:41:19.508Z,12.97
2023-05-11T01:43:53.450Z,13.03
2023-05-11T01:46:23.196Z,12.96
2023-05-11T01:48:52.495Z,12.82
2023-05-11T01:51:20.398Z,12.97
2023-05-11T01:53:48.264Z,12.98
2023-05-11T01:56:16.906Z,12.93
2023-05-11T01:58:46.353Z,12.92
2023-05-11T02:01:14.865Z,13.03
2023-05-11T02:03:47.845Z,12.97
2023-05-11T02:06:17.993Z,13.00
2023-05-11T02:08:45.670Z,13.12
2023-05-11T02:11:13.406Z,12.95
2023-05-11T02:13:42.485Z,12.94
2023-05-11T02:16:10.515Z,13.00
2023-05-11T02:18:40.851Z,12.84
2023-05-11T02:21:09.664Z,12.93
2023-05-11T02:23:44.569Z,12.82
2023-05-11T02:26:12.949Z,12.92
2023-05-11T02:28:39.465Z,12.99
2023-05-11T02:31:12.126Z,12.94
2023-05-11T02:33:44.710Z,13.00
2023-05-11T02:36:17.268Z,13.00
2023-05-11T02:38:53.701Z,12.84
2023-05-11T02:41:26.020Z,12.97
2023-05-11T02:43:55.834Z,12.92
2023-05-11T02:46:28.065Z,12.94
2023-05-11T02:49:00.967Z,12.89
2023-05-11T02:51:33.228Z,12.90
2023-05-11T02:54:01.471Z,12.88
2023-05-11T02:56:29.048Z,12.98
2023-05-11T02:58:55.927Z,12.90
2023-05-11T03:01:22.719Z,12.84
2023-05-11T03:03:52.792Z,12.91
2023-05-11T03:06:19.472Z,12.89
2023-05-11T03:08:46.825Z,12.90
2023-05-11T03:11:14.901Z,12.92
2023-05-11T03:13:45.676Z,12.90
2023-05-11T03:16:13.001Z,12.98
2023-05-11T03:18:45.604Z,12.88
2023-05-11T03:21:14.772Z,12.91
2023-05-11T03:23:41.679Z,12.93
2023-05-11T03:26:11.790Z,12.92
2023-05-11T03:28:40.749Z,12.88
2023-05-11T03:31:08.253Z,12.89
2023-05-11T03:33:46.744Z,12.89
2023-05-11T03:36:14.596Z,12.90
2023-05-11T03:38:41.907Z,12.80
2023-05-11T03:41:08.633Z,12.98
2023-05-11T03:43:37.206Z,12.92
2023-05-11T03:46:04.719Z,12.91
2023-05-11T03:48:32.274Z,12.83
2023-05-11T03:50:59.149Z,12.94
2023-05-11T03:53:26.169Z,13.04
2023-05-11T03:55:53.016Z,12.81
2023-05-11T03:58:20.165Z,12.84
2023-05-11T04:00:46.994Z,12.90
2023-05-11T04:03:13.984Z,12.78
2023-05-11T04:05:41.787Z,12.78
2023-05-11T04:08:09.732Z,12.80
2023-05-11T04:10:36.290Z,12.96
2023-05-11T04:13:03.027Z,12.96
2023-05-11T04:15:30.112Z,12.74
2023-05-11T04:18:00.689Z,12.84
2023-05-11T04:20:27.162Z,12.77
2023-05-11T04:22:53.636Z,12.79
2023-05-11T04:25:21.286Z,12.85
2023-05-11T04:27:47.719Z,12.78
2023-05-11T04:30:21.498Z,12.84
2023-05-11T04:32:48.134Z,12.92
2023-05-11T04:35:14.598Z,12.99
2023-05-11T04:37:41.061Z,12.96
2023-05-11T04:40:08.235Z,12.90
2023-05-11T04:42:34.781Z,12.85
2023-05-11T04:45:01.253Z,12.85
2023-05-11T04:47:27.781Z,12.84
2023-05-11T04:49:54.270Z,12.87
2023-05-11T04:52:20.864Z,12.89
2023-05-11T04:54:47.389Z,12.97
2023-05-11T04:57:13.895Z,12.94
2023-05-11T04:59:47.758Z,12.93
2023-05-11T05:02:14.474Z,12.93
2023-05-11T05:04:41.014Z,12.95
2023-05-11T05:07:07.932Z,12.92
2023-05-11T05:09:34.413Z,12.96
2023-05-11T05:12:01.598Z,13.03
2023-05-11T05:14:28.069Z,13.00
2023-05-11T05:16:54.678Z,13.09
2023-05-11T05:19:21.310Z,13.15
2023-05-11T05:21:48.405Z,13.17
2023-05-11T05:24:14.930Z,13.13
2023-05-11T05:26:41.395Z,13.13
2023-05-11T05:29:07.944Z,13.02
2023-05-11T05:31:34.925Z,13.13
2023-05-11T05:34:03.523Z,12.90
2023-05-11T05:36:29.990Z,13.03
2023-05-11T05:38:57.559Z,13.08
2023-05-11T05:41:24.152Z,13.19
2023-05-11T05:43:54.679Z,13.23
2023-05-11T05:46:21.493Z,13.19
2023-05-11T05:48:48.091Z,13.18
2023-05-11T05:51:14.674Z,13.33
2023-05-11T05:53:41.231Z,13.38
2023-05-11T05:56:07.928Z,13.43
2023-05-11T05:58:34.470Z,13.30
2023-05-11T06:01:01.393Z,13.26
2023-05-11T06:03:29.471Z,13.15
2023-05-11T06:05:56.363Z,13.18
2023-05-11T06:08:22.933Z,13.28
2023-05-11T06:10:49.500Z,13.22
2023-05-11T06:13:16.062Z,13.31
2023-05-11T06:15:43.825Z,13.50
2023-05-11T06:18:13.934Z,13.56
2023-05-11T06:20:40.478Z,13.41
2023-05-11T06:23:07.011Z,13.44
2023-05-11T06:25:34.933Z,13.51
2023-05-11T06:28:01.903Z,13.45
2023-05-11T06:30:29.740Z,13.66
2023-05-11T06:32:56.288Z,13.69
2023-05-11T06:35:23.419Z,13.75
2023-05-11T06:37:49.950Z,13.96
2023-05-11T06:40:16.828Z,13.87
2023-05-11T06:42:43.661Z,14.12
2023-05-11T06:45:10.548Z,14.16
2023-05-11T06:47:37.200Z,14.10
2023-05-11T06:50:09.981Z,13.93
2023-05-11T06:52:36.521Z,13.87
2023-05-11T06:55:03.172Z,13.80
2023-05-11T06:57:29.686Z,13.70
2023-05-11T06:59:56.171Z,13.70
2023-05-11T07:02:22.677Z,13.94
2023-05-11T07:04:52.280Z,14.06
2023-05-11T07:07:20.868Z,13.78
2023-05-11T07:09:56.760Z,13.84
2023-05-11T07:12:23.239Z,13.89
2023-05-11T07:14:54.964Z,14.13
2023-05-11T07:17:21.486Z,14.22
2023-05-11T07:19:51.301Z,14.31
2023-05-11T07:22:18.662Z,14.20
2023-05-11T07:24:47.243Z,14.17
2023-05-11T07:27:14.915Z,14.18
2023-05-11T07:29:41.453Z,14.30
2023-05-11T07:32:07.974Z,14.24
2023-05-11T07:34:34.819Z,14.33
2023-05-11T07:37:01.770Z,14.39
2023-05-11T07:39:28.347Z,14.27
2023-05-11T07:41:54.860Z,14.45
2023-05-11T07:44:21.438Z,14.41
2023-05-11T07:47:01.525Z,14.44
2023-05-11T07:49:40.047Z,14.40
2023-05-11T07:52:10.440Z,14.39
2023-05-11T07:54:37.005Z,14.28
2023-05-11T07:57:04.117Z,14.46
2023-05-11T07:59:31.205Z,14.49
2023-05-11T08:01:57.735Z,14.48
2023-05-11T08:04:24.422Z,14.50
2023-05-11T08:06:53.764Z,14.48
2023-05-11T08:09:20.302Z,14.43
2023-05-11T08:11:46.857Z,14.37
2023-05-11T08:14:13.729Z,14.31
2023-05-11T08:16:40.281Z,14.37
2023-05-11T08:19:06.966Z,14.51
2023-05-11T08:21:33.512Z,14.65
2023-05-11T08:24:00.130Z,14.51
2023-05-11T08:26:26.673Z,14.44
2023-05-11T08:28:54.234Z,14.40
2023-05-11T08:31:20.776Z,14.31
2023-05-11T08:33:47.461Z,14.53
2023-05-11T08:36:14.028Z,14.54
2023-05-11T08:38:40.652Z,14.54
2023-05-11T08:41:08.012Z,14.52
2023-05-11T08:43:36.102Z,14.35
2023-05-11T08:46:07.840Z,14.63
2023-05-11T08:48:34.918Z,14.37
2023-05-11T08:51:03.531Z,14.64
2023-05-11T08:53:30.496Z,14.30
2023-05-11T08:56:07.292Z,14.62
2023-05-11T08:58:37.431Z,14.72
2023-05-11T09:01:06.371Z,14.72
2023-05-11T09:03:35.602Z,14.79
2023-05-11T09:06:05.647Z,14.95
2023-05-11T09:08:44.148Z,14.88
2023-05-11T09:11:11.148Z,15.12
2023-05-11T09:13:37.718Z,15.22
2023-05-11T09:16:04.448Z,15.06
2023-05-11T09:18:31.228Z,15.05
2023-05-11T09:21:01.354Z,14.84
2023-05-11T09:23:27.980Z,14.90
2023-05-11T09:25:54.976Z,14.87
2023-05-11T09:28:25.978Z,15.07
2023-05-11T09:30:53.686Z,15.06
2023-05-11T09:33:26.650Z,15.42
2023-05-11T09:35:53.691Z,15.70
2023-05-11T09:38:20.822Z,15.48
2023-05-11T09:40:55.884Z,15.81
2023-05-11T09:43:26.755Z,16.32
2023-05-11T09:45:56.758Z,16.26
2023-05-11T09:48:31.741Z,16.34
2023-05-11T09:51:08.404Z,16.78
2023-05-11T09:53:43.225Z,17.08
2023-05-11T09:56:11.448Z,17.11
2023-05-11T09:58:52.812Z,16.91
2023-05-11T10:01:29.686Z,17.01
2023-05-11T10:04:08.995Z,16.79
2023-05-11T10:06:45.366Z,16.48
2023-05-11T10:09:13.039Z,16.40
2023-05-11T10:11:44.241Z,16.19
2023-05-11T10:14:13.068Z,16.06
2023-05-11T10:16:43.798Z,15.98
2023-05-11T10:19:11.666Z,16.04
2023-05-11T10:21:39.198Z,15.97
2023-05-11T10:24:06.833Z,15.72
2023-05-11T10:26:33.554Z,15.86
2023-05-11T10:29:02.967Z,15.92
2023-05-11T10:31:30.006Z,15.99
2023-05-11T10:33:59.976Z,16.05
2023-05-11T10:36:27.381Z,16.03
2023-05-11T10:38:54.000Z,16.22
2023-05-11T10:41:23.297Z,16.05
2023-05-11T10:44:26.231Z,16.05
2023-05-11T10:47:01.697Z,15.87
2023-05-11T10:49:49.697Z,15.74
2023-05-11T10:52:36.969Z,15.58
2023-05-11T10:55:21.881Z,15.46
2023-05-11T10:57:57.817Z,15.61
2023-05-11T11:01:02.933Z,15.58
2023-05-11T11:03:30.360Z,15.23
2023-05-11T11:05:59.329Z,15.31
2023-05-11T11:08:28.564Z,15.54
2023-05-11T11:10:56.298Z,15.45
2023-05-11T11:13:24.470Z,15.31
2023-05-11T11:15:54.374Z,15.61
2023-05-11T11:18:25.292Z,15.83
2023-05-11T11:20:53.468Z,15.69
2023-05-11T11:23:41.878Z,15.74
2023-05-11T11:26:10.172Z,15.81
2023-05-11T11:28:56.641Z,15.94
2023-05-11T11:31:28.896Z,15.72
2023-05-11T11:33:59.070Z,15.88
2023-05-11T11:37:03.548Z,15.70
2023-05-11T11:39:46.944Z,15.42
2023-05-11T11:42:34.700Z,15.79
2023-05-11T11:45:40.106Z,16.00
2023-05-11T11:48:15.125Z,16.01
2023-05-11T11:50:44.000Z,15.97
2023-05-11T11:53:33.749Z,15.82
2023-05-11T11:56:00.283Z,15.68
2023-05-11T11:58:42.497Z,15.75
2023-05-11T12:01:12.038Z,15.71
2023-05-11T12:03:39.524Z,15.75
2023-05-11T12:06:08.173Z,15.75
2023-05-11T12:08:36.112Z,15.86
2023-05-11T12:11:04.492Z,15.54
2023-05-11T12:13:32.441Z,15.65
2023-05-11T12:16:12.568Z,15.69
2023-05-11T12:18:40.235Z,15.54
2023-05-11T12:21:06.995Z,15.52
2023-05-11T12:23:33.468Z,15.60
2023-05-11T12:26:04.430Z,15.58
2023-05-11T12:28:31.020Z,15.56
2023-05-11T12:30:59.888Z,15.64
2023-05-11T12:33:27.309Z,15.69
2023-05-11T12:35:55.022Z,15.84
2023-05-11T12:38:22.069Z,15.90
2023-05-11T12:41:08.068Z,15.90
2023-05-11T12:43:34.606Z,15.93
2023-05-11T12:46:01.261Z,15.49
2023-05-11T12:48:27.876Z,15.45
2023-05-11T12:50:54.443Z,15.56
2023-05-11T12:53:48.480Z,15.76
2023-05-11T12:56:14.956Z,15.68
2023-05-11T12:58:41.924Z,15.70
2023-05-11T13:01:11.182Z,15.49
2023-05-11T13:03:47.846Z,15.75
2023-05-11T13:06:20.057Z,15.70
2023-05-11T13:08:47.011Z,15.74
2023-05-11T13:11:22.871Z,15.78
2023-05-11T13:13:50.327Z,15.55
2023-05-11T13:16:31.813Z,15.60
2023-05-11T13:19:04.147Z,15.60
2023-05-11T13:21:33.127Z,15.48
2023-05-11T13:24:00.448Z,15.55
2023-05-11T13:26:31.680Z,15.54
2023-05-11T13:29:09.539Z,15.44
2023-05-11T13:31:47.606Z,15.38
2023-05-11T13:34:14.882Z,15.48
2023-05-11T13:36:41.433Z,15.34
2023-05-11T13:39:08.108Z,15.32
2023-05-11T13:41:34.863Z,15.51
2023-05-11T13:44:01.388Z,15.43
2023-05-11T13:46:27.935Z,15.65
2023-05-11T13:48:55.314Z,15.66
2023-05-11T13:51:22.835Z,15.80
2023-05-11T13:53:49.329Z,15.68
2023-05-11T13:56:16.728Z,15.75
2023-05-11T13:58:43.238Z,15.72
2023-05-11T14:01:09.714Z,15.70
2023-05-11T14:03:36.276Z,15.66
2023-05-11T14:06:03.245Z,15.74
2023-05-11T14:08:29.797Z,15.54
2023-05-11T14:10:56.284Z,15.64
2023-05-11T14:13:25.302Z,15.57
2023-05-11T14:15:52.171Z,15.68
2023-05-11T14:18:18.863Z,15.67
2023-05-11T14:20:47.648Z,15.64
2023-05-11T14:23:14.103Z,15.08
2023-05-11T14:25:40.617Z,15.37
2023-05-11T14:28:07.409Z,15.51
2023-05-11T14:30:33.948Z,14.93
2023-05-11T14:33:00.812Z,15.21
2023-05-11T14:35:27.375Z,15.55
2023-05-11T14:37:54.694Z,15.32
2023-05-11T14:40:21.293Z,15.39
2023-05-11T14:42:47.724Z,15.15
2023-05-11T14:45:14.356Z,15.18
2023-05-11T14:47:40.906Z,15.22
2023-05-11T14:50:08.262Z,14.91
2023-05-11T14:52:34.696Z,15.03
2023-05-11T14:55:01.161Z,14.92
2023-05-11T14:57:27.619Z,15.05
2023-05-11T14:59:59.939Z,14.72
2023-05-11T15:02:28.914Z,14.74
2023-05-11T15:04:55.564Z,14.59
2023-05-11T15:07:22.109Z,14.31
2023-05-11T15:09:54.735Z,14.48
2023-05-11T15:12:21.233Z,14.42
2023-05-11T15:14:47.789Z,14.35
2023-05-11T15:17:14.311Z,14.48
2023-05-11T15:19:40.888Z,14.52
2023-05-11T15:22:19.197Z,14.47
2023-05-11T15:24:46.075Z,14.65
2023-05-11T15:27:26.780Z,14.59
2023-05-11T15:29:53.331Z,14.62
2023-05-11T15:32:20.434Z,14.47
2023-05-11T15:34:58.051Z,14.29
2023-05-11T15:37:29.166Z,14.50
2023-05-11T15:39:56.130Z,14.55
2023-05-11T15:42:22.586Z,14.49
2023-05-11T15:44:49.520Z,14.47
2023-05-11T15:47:16.340Z,14.56
2023-05-11T15:49:42.902Z,14.39
2023-05-11T15:52:09.351Z,14.59
2023-05-11T15:54:37.834Z,14.35
2023-05-11T15:57:04.581Z,14.41
2023-05-11T15:59:32.589Z,14.64
2023-05-11T16:01:59.190Z,14.46
2023-05-11T16:04:34.998Z,13.96
2023-05-11T16:07:01.441Z,14.01
2023-05-11T16:09:27.922Z,14.09
2023-05-11T16:11:55.007Z,13.98
2023-05-11T16:14:21.779Z,13.95
2023-05-11T16:16:48.750Z,13.90
2023-05-11T16:19:15.680Z,13.73
2023-05-11T16:21:48.292Z,13.89
2023-05-11T16:24:14.849Z,13.80
2023-05-11T16:26:41.495Z,13.74
2023-05-11T16:29:08.801Z,13.47
2023-05-11T16:31:35.366Z,13.61
2023-05-11T16:34:02.629Z,13.69
2023-05-11T16:36:29.792Z,13.54
2023-05-11T16:38:56.301Z,13.64
2023-05-11T16:41:25.171Z,13.63
2023-05-11T16:43:51.711Z,13.64
2023-05-11T16:46:18.295Z,13.54
2023-05-11T16:48:44.763Z,13.58
2023-05-11T16:51:13.442Z,13.64
2023-05-11T16:53:40.019Z,13.61
2023-05-11T16:56:06.532Z,13.59
2023-05-11T16:58:33.075Z,13.55
2023-05-11T17:01:06.214Z,13.57
2023-05-11T17:03:34.489Z,13.39
2023-05-11T17:06:01.428Z,13.48
2023-05-11T17:08:28.426Z,13.39
2023-05-11T17:10:55.673Z,13.30
2023-05-11T17:13:22.200Z,13.38
2023-05-11T17:15:48.757Z,13.15
2023-05-11T17:18:15.334Z,13.30
2023-05-11T17:20:42.079Z,13.42
2023-05-11T17:23:08.556Z,13.22
2023-05-11T17:25:35.002Z,13.26
2023-05-11T17:28:01.581Z,13.31
2023-05-11T17:30:36.288Z,13.42
2023-05-11T17:33:13.778Z,13.42
2023-05-11T17:35:42.950Z,13.50
2023-05-11T17:38:09.445Z,13.29
2023-05-11T17:40:43.352Z,13.20
2023-05-11T17:43:09.818Z,13.20
2023-05-11T17:45:41.423Z,13.23
2023-05-11T17:48:07.855Z,13.20
2023-05-11T17:50:36.480Z,13.00
2023-05-11T17:53:03.051Z,13.12
2023-05-11T17:55:29.597Z,13.23
2023-05-11T17:57:57.145Z,13.25
2023-05-11T18:00:24.052Z,13.23
2023-05-11T18:02:51.207Z,13.23
2023-05-11T18:05:18.452Z,13.23
2023-05-11T18:07:45.039Z,13.24
2023-05-11T18:10:14.698Z,13.27
2023-05-11T18:12:41.337Z,13.24
2023-05-11T18:15:08.122Z,13.17
2023-05-11T18:17:34.851Z,12.99
2023-05-11T18:20:01.438Z,13.07
2023-05-11T18:22:29.968Z,13.07
2023-05-11T18:24:56.876Z,13.09
2023-05-11T18:27:23.386Z,13.01
2023-05-11T18:29:49.897Z,12.97
2023-05-11T18:32:18.411Z,12.91
2023-05-11T18:34:45.334Z,12.76
2023-05-11T18:37:19.828Z,12.71
2023-05-11T18:39:47.700Z,12.71
2023-05-11T18:42:14.241Z,12.67
2023-05-11T18:44:40.936Z,12.74
2023-05-11T18:47:08.033Z,12.70
2023-05-11T18:49:35.448Z,12.63
2023-05-11T18:52:02.020Z,12.71
2023-05-11T18:54:30.527Z,12.64
2023-05-11T18:56:57.114Z,12.57
2023-05-11T18:59:23.567Z,12.61
2023-05-11T19:01:51.483Z,12.58
2023-05-11T19:04:19.978Z,12.63
2023-05-11T19:06:47.769Z,12.56
2023-05-11T19:09:14.457Z,12.76
2023-05-11T19:11:41.674Z,12.67
2023-05-11T19:14:08.220Z,12.72
2023-05-11T19:16:35.811Z,12.62
2023-05-11T19:19:02.918Z,12.62
2023-05-11T19:21:29.804Z,12.72
2023-05-11T19:23:56.400Z,12.52
2023-05-11T19:26:23.300Z,12.58
2023-05-11T19:28:51.820Z,12.52
2023-05-11T19:31:18.428Z,12.57
2023-05-11T19:33:44.994Z,12.55
2023-05-11T19:36:11.512Z,12.63
2023-05-11T19:38:38.180Z,12.59
2023-05-11T19:41:04.748Z,12.50
2023-05-11T19:43:32.388Z,12.48
2023-05-11T19:45:59.125Z,12.46
2023-05-11T19:48:25.801Z,12.46
2023-05-11T19:50:53.372Z,12.46
2023-05-11T19:53:19.879Z,12.29
2023-05-11T19:55:48.097Z,12.42
2023-05-11T19:58:14.912Z,12.32
2023-05-11T20:00:41.403Z,12.29
2023-05-11T20:03:08.481Z,12.26
2023-05-11T20:05:46.463Z,12.27
2023-05-11T20:08:13.304Z,12.23
2023-05-11T20:10:41.765Z,12.28
2023-05-11T20:13:08.560Z,12.29
2023-05-11T20:15:35.539Z,12.11
2023-05-11T20:18:05.190Z,12.16
2023-05-11T20:20:32.590Z,12.18
2023-05-11T20:23:00.854Z,12.19
2023-05-11T20:25:27.347Z,12.06
2023-05-11T20:27:53.904Z,11.95
2023-05-11T20:30:20.701Z,12.17
2023-05-11T20:35:18.068Z,12.18
2023-05-11T20:37:44.901Z,12.10
2023-05-11T20:40:12.089Z,12.15
2023-05-11T20:42:38.976Z,12.18
2023-05-11T20:45:08.237Z,12.15
2023-05-11T20:47:34.957Z,12.23
2023-05-11T20:50:02.942Z,12.18
2023-05-11T20:52:30.208Z,12.20
2023-05-11T20:54:56.890Z,12.25
2023-05-11T20:57:23.564Z,12.30
2023-05-11T21:02:19.681Z,12.07
2023-05-11T21:04:46.854Z,12.11
2023-05-11T21:07:13.389Z,12.07
2023-05-11T21:09:40.180Z,12.24
2023-05-11T21:14:36.500Z,12.14
2023-05-11T21:17:03.058Z,12.16
2023-05-11T21:19:29.647Z,12.15
2023-05-11T21:21:56.185Z,12.16
2023-05-11T21:24:23.138Z,12.14
2023-05-11T21:26:49.615Z,12.03
2023-05-11T21:29:17.885Z,12.02
2023-05-11T21:31:44.460Z,11.90
2023-05-11T21:34:11.938Z,11.84
2023-05-11T21:36:40.356Z,12.02
2023-05-11T21:39:08.972Z,12.06
2023-05-11T21:41:35.470Z,11.87
2023-05-11T21:44:02.020Z,11.95
2023-05-11T21:46:28.511Z,11.92
2023-05-11T21:48:54.993Z,11.95
2023-05-11T21:51:21.484Z,12.03
2023-05-11T21:53:47.929Z,12.13
2023-05-11T21:56:14.576Z,12.05
2023-05-11T21:58:41.678Z,12.00
2023-05-11T22:01:09.164Z,11.89
2023-05-11T22:03:35.971Z,11.96
2023-05-11T22:06:02.477Z,11.88
2023-05-11T22:08:29.180Z,11.94
2023-05-11T22:10:55.660Z,11.93
2023-05-11T22:13:22.115Z,11.85
2023-05-11T22:15:48.622Z,11.87
2023-05-11T22:18:15.126Z,11.94
2023-05-11T22:20:41.713Z,11.89
2023-05-11T22:23:08.369Z,12.00
2023-05-11T22:25:35.028Z,11.95
2023-05-11T22:28:01.568Z,11.99
2023-05-11T22:30:28.024Z,11.97
2023-05-11T22:33:00.912Z,12.05
2023-05-11T22:35:27.560Z,12.00
2023-05-11T22:37:54.734Z,11.98
2023-05-11T22:40:21.417Z,11.92
2023-05-11T22:42:48.023Z,11.87
2023-05-11T22:45:15.259Z,11.93
2023-05-11T22:47:42.014Z,11.92
2023-05-11T22:50:11.894Z,11.97
2023-05-11T22:52:38.806Z,11.83
2023-05-11T22:55:06.172Z,11.86
2023-05-11T22:57:32.772Z,11.99
2023-05-11T22:59:59.301Z,11.94
2023-05-11T23:02:30.028Z,11.94
2023-05-11T23:04:56.710Z,11.91
2023-05-11T23:07:23.233Z,12.02
2023-05-11T23:09:52.492Z,11.91
2023-05-11T23:12:19.319Z,12.12
2023-05-11T23:14:45.894Z,12.08
2023-05-11T23:17:12.618Z,12.05
2023-05-11T23:19:39.354Z,11.99
2023-05-11T23:22:05.949Z,11.92
2023-05-11T23:24:32.426Z,11.86
2023-05-11T23:27:00.193Z,11.92
2023-05-11T23:29:27.193Z,11.94
2023-05-11T23:31:53.998Z,11.99
2023-05-11T23:34:20.601Z,12.11
2023-05-11T23:36:47.435Z,12.05
2023-05-11T23:39:14.316Z,12.01
2023-05-11T23:41:40.837Z,11.91
2023-05-11T23:44:07.350Z,11.85
2023-05-11T23:46:34.023Z,11.90
2023-05-11T23:49:00.527Z,11.88
2023-05-11T23:51:27.050Z,11.82
2023-05-11T23:53:57.604Z,11.90
2023-05-11T23:56:24.775Z,11.88
2023-05-11T23:58:51.358Z,11.90
